createdAt,value
2016-06-09T00:00:15.390Z,34.61
2016-06-09T00:01:15.423Z,34.7
2016-06-09T00:02:15.442Z,34.7
2016-06-09T00:03:16.402Z,34.7
2016-06-09T00:04:15.511Z,34.9
2016-06-09T00:05:15.530Z,35
2016-06-09T00:06:15.564Z,35.1
2016-06-09T00:07:15.582Z,35.08
2016-06-09T00:08:15.617Z,35.08
2016-06-09T00:09:15.652Z,35
2016-06-09T00:10:15.670Z,34.9
2016-06-09T00:11:15.549Z,34.8
2016-06-09T00:12:15.722Z,34.88
2016-06-09T00:13:15.757Z,34.88
2016-06-09T00:14:15.791Z,34.78
2016-06-09T00:15:15.825Z,35.17
2016-06-09T00:16:15.984Z,34.98
2016-06-09T00:17:15.987Z,35.36
2016-06-09T00:18:16.007Z,35.46
2016-06-09T00:19:16.478Z,35.27
2016-06-09T00:20:16.044Z,35.27
2016-06-09T00:21:16.047Z,35.08
2016-06-09T00:22:16.050Z,35.36
2016-06-09T00:23:16.053Z,35.46
2016-06-09T00:24:16.135Z,35.36
2016-06-09T00:25:16.122Z,35.46
2016-06-09T00:26:16.140Z,35.36
2016-06-09T00:27:16.160Z,35.36
2016-06-09T00:28:16.272Z,35.36
2016-06-09T00:29:16.275Z,35.46
2016-06-09T00:30:16.309Z,35.56
2016-06-09T00:31:16.313Z,35.36
2016-06-09T00:32:16.331Z,35.46
2016-06-09T00:33:16.647Z,35.27
2016-06-09T00:34:16.447Z,35.36
2016-06-09T00:35:16.372Z,35.75
2016-06-09T00:36:16.407Z,35.65
2016-06-09T00:37:16.424Z,35.65
2016-06-09T00:38:16.459Z,35.54
2016-06-09T00:39:16.478Z,35.64
2016-06-09T00:40:16.512Z,35.56
2016-06-09T00:41:16.530Z,35.44
2016-06-09T00:42:16.581Z,35.73
2016-06-09T00:43:16.600Z,36.13
2016-06-09T00:44:16.477Z,36.04
2016-06-09T00:45:16.653Z,36.11
2016-06-09T00:46:16.670Z,36.31
2016-06-09T00:47:16.705Z,36.6
2016-06-09T00:48:16.740Z,36.23
2016-06-09T00:49:16.602Z,36.31
2016-06-09T00:50:16.793Z,36.21
2016-06-09T00:51:16.811Z,36.31
2016-06-09T00:52:16.846Z,36.6
2016-06-09T00:53:16.880Z,36.69
2016-06-09T00:54:16.899Z,36.69
2016-06-09T00:55:16.934Z,36.69
2016-06-09T00:56:16.951Z,36.69
2016-06-09T00:57:16.829Z,36.6
2016-06-09T00:58:17.021Z,36.69
2016-06-09T00:59:17.039Z,36.89
2016-06-09T01:00:17.058Z,36.99
2016-06-09T01:01:17.092Z,36.99
2016-06-09T01:02:17.126Z,36.79
2016-06-09T01:03:16.989Z,37.08
2016-06-09T01:04:17.195Z,36.89
2016-06-09T01:05:17.198Z,36.79
2016-06-09T01:06:17.233Z,36.79
2016-06-09T01:07:17.266Z,36.89
2016-06-09T01:08:17.285Z,36.69
2016-06-09T01:09:17.319Z,36.69
2016-06-09T01:10:17.339Z,36.99
2016-06-09T01:11:17.373Z,36.51
2016-06-09T01:12:17.392Z,36.89
2016-06-09T01:13:17.270Z,37.06
2016-06-09T01:14:17.445Z,37.06
2016-06-09T01:15:17.479Z,36.99
2016-06-09T01:16:17.498Z,37.27
2016-06-09T01:17:17.532Z,37.37
2016-06-09T01:18:17.582Z,37.06
2016-06-09T01:19:18.148Z,37.26
2016-06-09T01:20:17.619Z,37.16
2016-06-09T01:21:17.638Z,37.45
2016-06-09T01:22:17.673Z,37.54
2016-06-09T01:23:17.707Z,37.74
2016-06-09T01:24:17.725Z,37.54
2016-06-09T01:25:17.760Z,37.45
2016-06-09T01:26:17.779Z,37.06
2016-06-09T01:27:17.813Z,37.74
2016-06-09T01:28:17.830Z,37.83
2016-06-09T01:29:18.022Z,37.64
2016-06-09T01:30:17.885Z,38.02
2016-06-09T01:31:17.919Z,38.02
2016-06-09T01:32:18.031Z,37.83
2016-06-09T01:33:18.081Z,37.35
2016-06-09T01:34:17.850Z,37.83
2016-06-09T01:35:18.102Z,37.64
2016-06-09T01:36:18.090Z,37.74
2016-06-09T01:37:18.109Z,38.12
2016-06-09T01:38:18.111Z,37.93
2016-06-09T01:39:18.256Z,37.83
2016-06-09T01:40:18.259Z,37.83
2016-06-09T01:41:18.137Z,37.74
2016-06-09T01:42:18.312Z,37.74
2016-06-09T01:43:18.315Z,37.45
2016-06-09T01:44:18.349Z,37.93
2016-06-09T01:45:18.352Z,38.02
2016-06-09T01:46:18.372Z,38.22
2016-06-09T01:47:18.374Z,38.22
2016-06-09T01:48:18.440Z,38.02
2016-06-09T01:49:18.412Z,38.22
2016-06-09T01:50:18.431Z,38.51
2016-06-09T01:51:18.465Z,38.41
2016-06-09T01:52:18.484Z,38.41
2016-06-09T01:53:18.518Z,38.39
2016-06-09T01:54:18.536Z,38.39
2016-06-09T01:55:18.570Z,38.29
2016-06-09T01:56:18.589Z,38.51
2016-06-09T01:57:18.624Z,38.39
2016-06-09T01:58:18.752Z,38.51
2016-06-09T01:59:18.770Z,38.41
2016-06-09T02:00:18.774Z,38.41
2016-06-09T02:01:18.792Z,38.7
2016-06-09T02:02:18.810Z,38.68
2016-06-09T02:03:18.971Z,38.59
2016-06-09T02:04:19.708Z,38.79
2016-06-09T02:05:18.977Z,38.6
2016-06-09T02:06:18.995Z,38.49
2016-06-09T02:07:18.998Z,38.6
2016-06-09T02:08:19.048Z,38.39
2016-06-09T02:09:19.051Z,38.78
2016-06-09T02:10:19.070Z,38.78
2016-06-09T02:11:19.073Z,38.78
2016-06-09T02:12:19.076Z,38.78
2016-06-09T02:13:19.141Z,38.87
2016-06-09T02:14:19.161Z,38.68
2016-06-09T02:15:19.194Z,38.78
2016-06-09T02:16:19.245Z,38.87
2016-06-09T02:17:19.264Z,38.97
2016-06-09T02:18:19.220Z,39.16
2016-06-09T02:19:19.331Z,39.06
2016-06-09T02:20:19.241Z,38.87
2016-06-09T02:21:19.276Z,38.97
2016-06-09T02:22:19.309Z,38.78
2016-06-09T02:23:19.360Z,38.97
2016-06-09T02:24:19.363Z,39.16
2016-06-09T02:25:19.381Z,39.16
2016-06-09T02:26:19.416Z,38.87
2016-06-09T02:27:19.434Z,39.06
2016-06-09T02:28:19.469Z,38.78
2016-06-09T02:29:19.488Z,39.26
2016-06-09T02:30:19.522Z,39.16
2016-06-09T02:31:19.541Z,39.26
2016-06-09T02:32:19.560Z,39.36
2016-06-09T02:33:19.594Z,39.45
2016-06-09T02:34:19.628Z,39.45
2016-06-09T02:35:19.647Z,39.54
2016-06-09T02:36:19.681Z,39.45
2016-06-09T02:37:19.715Z,39.45
2016-06-09T02:38:19.734Z,39.54
2016-06-09T02:39:19.785Z,39.54
2016-06-09T02:40:19.787Z,39.74
2016-06-09T02:41:19.805Z,39.74
2016-06-09T02:42:19.919Z,39.83
2016-06-09T02:43:19.922Z,40.03
2016-06-09T02:44:19.908Z,40.03
2016-06-09T02:45:19.912Z,39.83
2016-06-09T02:46:19.945Z,40.03
2016-06-09T02:47:20.153Z,39.74
2016-06-09T02:48:20.062Z,39.74
2016-06-09T02:49:20.064Z,39.64
2016-06-09T02:50:20.083Z,39.74
2016-06-09T02:51:20.196Z,39.83
2016-06-09T02:52:20.105Z,39.83
2016-06-09T02:53:20.217Z,39.54
2016-06-09T02:54:20.158Z,39.83
2016-06-09T02:55:20.192Z,39.83
2016-06-09T02:56:20.212Z,39.93
2016-06-09T02:57:20.245Z,39.83
2016-06-09T02:58:20.264Z,39.74
2016-06-09T02:59:20.299Z,39.93
2016-06-09T03:00:20.318Z,39.74
2016-06-09T03:01:20.366Z,39.74
2016-06-09T03:02:20.370Z,39.83
2016-06-09T03:03:20.389Z,40.03
2016-06-09T03:04:20.439Z,40.03
2016-06-09T03:05:20.442Z,40.03
2016-06-09T03:06:20.477Z,39.93
2016-06-09T03:07:20.510Z,40.22
2016-06-09T03:08:20.529Z,40.12
2016-06-09T03:09:20.564Z,40.03
2016-06-09T03:10:20.599Z,40.12
2016-06-09T03:11:20.616Z,40.22
2016-06-09T03:12:20.636Z,40.03
2016-06-09T03:13:20.670Z,40.22
2016-06-09T03:14:20.704Z,40.22
2016-06-09T03:15:20.722Z,40.12
2016-06-09T03:16:20.742Z,40.22
2016-06-09T03:17:20.776Z,40.41
2016-06-09T03:18:20.794Z,40.31
2016-06-09T03:19:20.829Z,40.22
2016-06-09T03:20:20.863Z,40.31
2016-06-09T03:21:20.897Z,40.22
2016-06-09T03:22:20.916Z,40.41
2016-06-09T03:23:20.934Z,40.12
2016-06-09T03:24:20.969Z,40.61
2016-06-09T03:25:20.987Z,40.7
2016-06-09T03:26:21.023Z,40.41
2016-06-09T03:27:21.041Z,40.51
2016-06-09T03:28:21.059Z,40.22
2016-06-09T03:29:21.094Z,40.51
2016-06-09T03:30:21.113Z,40.89
2016-06-09T03:31:21.147Z,40.61
2016-06-09T03:32:21.166Z,40.51
2016-06-09T03:33:21.201Z,40.51
2016-06-09T03:34:21.500Z,40.8
2016-06-09T03:35:21.253Z,40.41
2016-06-09T03:36:21.288Z,40.51
2016-06-09T03:37:21.307Z,40.49
2016-06-09T03:38:21.340Z,40.51
2016-06-09T03:39:21.359Z,40.49
2016-06-09T03:40:21.378Z,40.51
2016-06-09T03:41:21.256Z,40.49
2016-06-09T03:42:21.289Z,40.41
2016-06-09T03:43:21.465Z,40.68
2016-06-09T03:44:21.484Z,40.61
2016-06-09T03:45:21.518Z,40.89
2016-06-09T03:46:21.552Z,40.97
2016-06-09T03:47:21.571Z,40.61
2016-06-09T03:48:21.605Z,40.97
2016-06-09T03:49:21.624Z,40.97
2016-06-09T03:50:21.643Z,40.78
2016-06-09T03:51:21.692Z,40.7
2016-06-09T03:52:21.727Z,40.8
2016-06-09T03:53:21.746Z,40.8
2016-06-09T03:54:21.765Z,40.99
2016-06-09T03:55:21.782Z,40.97
2016-06-09T03:56:21.802Z,40.97
2016-06-09T03:57:21.836Z,40.88
2016-06-09T03:58:21.871Z,40.68
2016-06-09T03:59:21.889Z,40.7
2016-06-09T04:00:21.923Z,40.89
2016-06-09T04:01:22.020Z,40.89
2016-06-09T04:02:21.976Z,40.97
2016-06-09T04:03:21.996Z,40.99
2016-06-09T04:04:22.077Z,40.78
2016-06-09T04:05:22.126Z,40.7
2016-06-09T04:06:22.146Z,40.88
2016-06-09T04:07:22.102Z,40.88
2016-06-09T04:08:22.120Z,40.8
2016-06-09T04:09:22.154Z,40.58
2016-06-09T04:10:22.283Z,40.97
2016-06-09T04:11:22.207Z,40.88
2016-06-09T04:12:22.226Z,40.89
2016-06-09T04:13:22.260Z,40.99
2016-06-09T04:14:22.279Z,40.8
2016-06-09T04:15:22.313Z,40.89
2016-06-09T04:16:22.333Z,41.06
2016-06-09T04:17:22.367Z,40.97
2016-06-09T04:18:22.400Z,40.78
2016-06-09T04:19:22.606Z,40.88
2016-06-09T04:20:22.798Z,41.16
2016-06-09T04:21:22.567Z,40.89
2016-06-09T04:22:22.506Z,40.88
2016-06-09T04:23:22.526Z,40.97
2016-06-09T04:24:22.544Z,40.97
2016-06-09T04:25:22.579Z,40.97
2016-06-09T04:26:22.675Z,40.88
2016-06-09T04:27:22.631Z,40.97
2016-06-09T04:28:22.650Z,40.78
2016-06-09T04:29:22.684Z,40.99
2016-06-09T04:30:22.704Z,40.8
2016-06-09T04:31:22.738Z,40.99
2016-06-09T04:32:22.757Z,40.88
2016-06-09T04:33:22.790Z,41.08
2016-06-09T04:34:22.794Z,40.99
2016-06-09T04:35:22.891Z,40.89
2016-06-09T04:36:22.862Z,40.8
2016-06-09T04:37:22.897Z,40.89
2016-06-09T04:38:22.915Z,40.89
2016-06-09T04:39:22.950Z,40.89
2016-06-09T04:40:22.984Z,40.89
2016-06-09T04:41:23.003Z,40.89
2016-06-09T04:42:23.021Z,40.89
2016-06-09T04:43:23.055Z,40.89
2016-06-09T04:44:23.091Z,40.89
2016-06-09T04:45:23.108Z,40.7
2016-06-09T04:46:23.143Z,40.89
2016-06-09T04:47:23.162Z,40.7
2016-06-09T04:48:23.181Z,40.99
2016-06-09T04:49:23.870Z,40.89
2016-06-09T04:50:23.077Z,40.89
2016-06-09T04:51:23.112Z,40.7
2016-06-09T04:52:23.287Z,40.99
2016-06-09T04:53:23.430Z,40.8
2016-06-09T04:54:23.339Z,40.89
2016-06-09T04:55:23.374Z,40.8
2016-06-09T04:56:23.408Z,40.89
2016-06-09T04:57:23.489Z,40.61
2016-06-09T04:58:23.446Z,40.8
2016-06-09T04:59:23.480Z,40.7
2016-06-09T05:00:23.498Z,40.61
2016-06-09T05:01:23.533Z,40.61
2016-06-09T05:02:23.646Z,40.61
2016-06-09T05:03:23.586Z,40.51
2016-06-09T05:04:23.917Z,40.51
2016-06-09T05:05:23.638Z,40.61
2016-06-09T05:06:23.658Z,40.8
2016-06-09T05:07:23.692Z,40.41
2016-06-09T05:08:23.711Z,40.7
2016-06-09T05:09:23.590Z,40.41
2016-06-09T05:10:23.763Z,40.51
2016-06-09T05:11:23.798Z,40.41
2016-06-09T05:12:23.817Z,40.51
2016-06-09T05:13:23.852Z,40.51
2016-06-09T05:14:23.869Z,40.51
2016-06-09T05:15:23.904Z,40.41
2016-06-09T05:16:23.923Z,40.51
2016-06-09T05:17:23.957Z,40.61
2016-06-09T05:18:23.992Z,40.51
2016-06-09T05:19:24.010Z,40.8
2016-06-09T05:20:24.732Z,40.41
2016-06-09T05:21:24.063Z,40.41
2016-06-09T05:22:24.082Z,40.51
2016-06-09T05:23:24.116Z,40.41
2016-06-09T05:24:24.135Z,40.89
2016-06-09T05:25:24.169Z,40.22
2016-06-09T05:26:24.204Z,40.63
2016-06-09T05:27:24.223Z,40.8
2016-06-09T05:28:24.241Z,40.81
2016-06-09T05:29:24.275Z,40.53
2016-06-09T05:30:24.294Z,40.14
2016-06-09T05:31:24.328Z,40.22
2016-06-09T05:32:24.347Z,40.24
2016-06-09T05:33:24.381Z,40.22
2016-06-09T05:34:24.416Z,40.22
2016-06-09T05:35:24.544Z,40.12
2016-06-09T05:36:24.469Z,40.24
2016-06-09T05:37:24.487Z,40.81
2016-06-09T05:38:24.506Z,40.24
2016-06-09T05:39:24.540Z,40.43
2016-06-09T05:40:24.591Z,40.05
2016-06-09T05:41:24.594Z,40.05
2016-06-09T05:42:24.612Z,40.24
2016-06-09T05:43:24.662Z,40.14
2016-06-09T05:44:24.508Z,40.24
2016-06-09T05:45:24.762Z,40.24
2016-06-09T05:46:24.827Z,40.43
2016-06-09T05:47:24.831Z,40.24
2016-06-09T05:48:24.771Z,40.05
2016-06-09T05:49:25.524Z,40.05
2016-06-09T05:50:24.855Z,40.14
2016-06-09T05:51:24.858Z,40.14
2016-06-09T05:52:24.892Z,40.43
2016-06-09T05:53:24.911Z,40.24
2016-06-09T05:54:25.023Z,40.24
2016-06-09T05:55:24.965Z,40.34
2016-06-09T05:56:24.999Z,40.14
2016-06-09T05:57:25.017Z,40.24
2016-06-09T05:58:25.068Z,40.05
2016-06-09T05:59:25.071Z,40.05
2016-06-09T06:00:25.105Z,40.24
2016-06-09T06:01:25.124Z,40.05
2016-06-09T06:02:25.159Z,40.14
2016-06-09T06:03:25.176Z,40.14
2016-06-09T06:04:25.196Z,40.24
2016-06-09T06:05:25.229Z,40.24
2016-06-09T06:06:25.279Z,40.24
2016-06-09T06:07:25.282Z,40.14
2016-06-09T06:08:25.316Z,40.34
2016-06-09T06:09:25.335Z,39.76
2016-06-09T06:10:25.355Z,39.95
2016-06-09T06:11:25.389Z,39.97
2016-06-09T06:12:25.423Z,40.05
2016-06-09T06:13:25.442Z,39.87
2016-06-09T06:14:25.476Z,39.86
2016-06-09T06:15:25.495Z,39.95
2016-06-09T06:16:25.529Z,40.07
2016-06-09T06:17:25.548Z,40.16
2016-06-09T06:18:25.582Z,39.68
2016-06-09T06:19:25.617Z,39.95
2016-06-09T06:20:25.636Z,40.07
2016-06-09T06:21:25.670Z,40.05
2016-06-09T06:22:25.814Z,39.86
2016-06-09T06:23:25.707Z,40.07
2016-06-09T06:24:25.929Z,39.97
2016-06-09T06:25:25.760Z,40.26
2016-06-09T06:26:25.794Z,40.24
2016-06-09T06:27:25.829Z,40.07
2016-06-09T06:28:25.894Z,40.24
2016-06-09T06:29:26.069Z,40.07
2016-06-09T06:30:25.901Z,40.24
2016-06-09T06:31:25.934Z,40.14
2016-06-09T06:32:25.953Z,40.14
2016-06-09T06:33:25.987Z,39.95
2016-06-09T06:34:26.022Z,40.43
2016-06-09T06:35:26.165Z,40.43
2016-06-09T06:36:26.060Z,40.63
2016-06-09T06:37:26.094Z,40.53
2016-06-09T06:38:26.113Z,40.53
2016-06-09T06:39:26.147Z,40.53
2016-06-09T06:40:26.165Z,40.53
2016-06-09T06:41:26.200Z,40.53
2016-06-09T06:42:26.234Z,40.72
2016-06-09T06:43:27.456Z,40.53
2016-06-09T06:44:26.288Z,40.63
2016-06-09T06:45:26.149Z,40.53
2016-06-09T06:46:26.340Z,40.72
2016-06-09T06:47:26.202Z,40.53
2016-06-09T06:48:26.394Z,40.53
2016-06-09T06:49:26.412Z,40.53
2016-06-09T06:50:27.181Z,40.63
2016-06-09T06:51:26.465Z,40.81
2016-06-09T06:52:26.498Z,40.53
2016-06-09T06:53:26.518Z,40.63
2016-06-09T06:54:26.552Z,40.63
2016-06-09T06:55:26.571Z,40.53
2016-06-09T06:56:26.605Z,40.63
2016-06-09T06:57:26.733Z,40.53
2016-06-09T06:58:26.783Z,40.43
2016-06-09T06:59:26.521Z,40.53
2016-06-09T07:00:26.759Z,40.64
2016-06-09T07:01:26.776Z,40.63
2016-06-09T07:02:26.607Z,40.45
2016-06-09T07:03:26.783Z,40.55
2016-06-09T07:04:26.927Z,40.45
2016-06-09T07:05:27.038Z,40.74
2016-06-09T07:06:26.964Z,40.45
2016-06-09T07:07:26.967Z,40.64
2016-06-09T07:08:26.986Z,40.55
2016-06-09T07:09:26.833Z,40.74
2016-06-09T07:10:27.007Z,40.64
2016-06-09T07:11:27.011Z,40.55
2016-06-09T07:12:27.123Z,40.74
2016-06-09T07:13:27.063Z,40.45
2016-06-09T07:14:27.082Z,40.55
2016-06-09T07:15:27.117Z,40.45
2016-06-09T07:16:27.135Z,40.74
2016-06-09T07:17:27.170Z,40.55
2016-06-09T07:18:29.219Z,40.55
2016-06-09T07:19:27.223Z,40.55
2016-06-09T07:20:27.242Z,40.84
2016-06-09T07:21:27.276Z,40.55
2016-06-09T07:22:27.294Z,40.55
2016-06-09T07:23:27.610Z,40.55
2016-06-09T07:24:27.347Z,40.55
2016-06-09T07:25:27.382Z,40.55
2016-06-09T07:26:27.401Z,40.55
2016-06-09T07:27:27.435Z,40.64
2016-06-09T07:28:27.470Z,40.45
2016-06-09T07:29:27.487Z,40.84
2016-06-09T07:30:27.538Z,40.55
2016-06-09T07:31:27.541Z,40.55
2016-06-09T07:32:27.560Z,40.55
2016-06-09T07:33:27.594Z,40.74
2016-06-09T07:34:27.627Z,40.84
2016-06-09T07:35:28.413Z,40.45
2016-06-09T07:36:27.666Z,40.57
2016-06-09T07:37:27.715Z,39.99
2016-06-09T07:38:27.734Z,40.07
2016-06-09T07:39:27.753Z,40.07
2016-06-09T07:40:27.787Z,40.19
2016-06-09T07:41:27.821Z,40.09
2016-06-09T07:42:27.840Z,40.16
2016-06-09T07:43:27.875Z,40.16
2016-06-09T07:44:27.893Z,40.55
2016-06-09T07:45:27.928Z,40.16
2016-06-09T07:46:27.947Z,40.07
2016-06-09T07:47:27.981Z,40.19
2016-06-09T07:48:28.015Z,40.09
2016-06-09T07:49:28.034Z,40.09
2016-06-09T07:50:28.584Z,40.28
2016-06-09T07:51:28.087Z,39.99
2016-06-09T07:52:28.106Z,39.99
2016-06-09T07:53:28.139Z,40.09
2016-06-09T07:54:28.158Z,40.09
2016-06-09T07:55:28.192Z,40.26
2016-06-09T07:56:28.212Z,39.99
2016-06-09T07:57:28.246Z,40.16
2016-06-09T07:58:28.280Z,40.28
2016-06-09T07:59:28.298Z,39.99
2016-06-09T08:00:28.333Z,39.99
2016-06-09T08:01:28.352Z,40.19
2016-06-09T08:02:28.402Z,40.09
2016-06-09T08:03:28.420Z,40.47
2016-06-09T08:04:28.439Z,40.57
2016-06-09T08:05:28.551Z,40.09
2016-06-09T08:06:28.493Z,40.37
2016-06-09T08:07:28.511Z,40.19
2016-06-09T08:08:28.546Z,40.28
2016-06-09T08:09:28.564Z,40.09
2016-06-09T08:10:28.613Z,39.99
2016-06-09T08:11:28.633Z,40.37
2016-06-09T08:12:28.652Z,39.79
2016-06-09T08:13:28.685Z,39.89
2016-06-09T08:14:28.704Z,39.89
2016-06-09T08:15:28.738Z,40.37
2016-06-09T08:16:28.773Z,40.28
2016-06-09T08:17:28.901Z,40.28
2016-06-09T08:18:28.841Z,39.99
2016-06-09T08:19:28.844Z,40.09
2016-06-09T08:20:28.989Z,39.99
2016-06-09T08:21:28.991Z,40.09
2016-06-09T08:22:29.026Z,39.89
2016-06-09T08:23:29.028Z,39.89
2016-06-09T08:24:28.985Z,39.99
2016-06-09T08:25:29.053Z,39.79
2016-06-09T08:26:29.098Z,39.7
2016-06-09T08:27:29.144Z,39.61
2016-06-09T08:28:29.314Z,39.61
2016-06-09T08:29:29.361Z,39.61
2016-06-09T08:30:29.436Z,39.89
2016-06-09T08:31:29.407Z,39.62
2016-06-09T08:32:29.348Z,39.79
2016-06-09T08:33:29.491Z,39.99
2016-06-09T08:34:29.540Z,39.61
2016-06-09T08:35:29.574Z,39.72
2016-06-09T08:36:29.599Z,39.99
2016-06-09T08:37:29.639Z,40.09
2016-06-09T08:38:29.663Z,40.09
2016-06-09T08:39:29.702Z,40.11
2016-06-09T08:40:29.741Z,39.79
2016-06-09T08:41:29.855Z,39.7
2016-06-09T08:42:29.861Z,39.91
2016-06-09T08:43:29.913Z,40.01
2016-06-09T08:44:29.950Z,39.91
2016-06-09T08:45:30.032Z,39.91
2016-06-09T08:46:30.036Z,39.61
2016-06-09T08:47:30.055Z,39.72
2016-06-09T08:48:30.059Z,39.82
2016-06-09T08:49:30.063Z,39.62
2016-06-09T08:50:30.020Z,40.01
2016-06-09T08:51:30.227Z,40.01
2016-06-09T08:52:30.245Z,39.99
2016-06-09T08:53:32.202Z,40.01
2016-06-09T08:54:30.238Z,40.01
2016-06-09T08:55:30.100Z,39.62
2016-06-09T08:56:30.260Z,39.61
2016-06-09T08:57:30.278Z,39.62
2016-06-09T08:58:30.266Z,39.53
2016-06-09T08:59:30.269Z,40.11
2016-06-09T09:00:30.302Z,39.82
2016-06-09T09:01:30.337Z,39.82
2016-06-09T09:02:30.355Z,40.11
2016-06-09T09:03:30.405Z,40.09
2016-06-09T09:04:30.408Z,40.39
2016-06-09T09:05:30.647Z,40.11
2016-06-09T09:06:30.462Z,40.11
2016-06-09T09:07:30.481Z,40.3
2016-06-09T09:08:31.749Z,40.3
2016-06-09T09:09:30.549Z,40.11
2016-06-09T09:10:30.412Z,40.66
2016-06-09T09:11:30.603Z,40.59
2016-06-09T09:12:30.636Z,40.69
2016-06-09T09:13:32.187Z,40.47
2016-06-09T09:14:30.690Z,40.49
2016-06-09T09:15:30.756Z,40.66
2016-06-09T09:16:30.758Z,40.59
2016-06-09T09:17:30.621Z,40.69
2016-06-09T09:18:31.015Z,40.49
2016-06-09T09:19:31.018Z,40.59
2016-06-09T09:20:31.021Z,40.59
2016-06-09T09:21:31.039Z,40.59
2016-06-09T09:22:31.042Z,40.49
2016-06-09T09:23:31.045Z,40.66
2016-06-09T09:24:31.158Z,40.59
2016-06-09T09:25:30.348Z,40.49
2016-06-09T09:26:31.211Z,40.69
2016-06-09T09:27:31.214Z,40.57
2016-06-09T09:28:31.186Z,40.49
2016-06-09T09:29:31.220Z,40.69
2016-06-09T09:30:31.269Z,40.69
2016-06-09T09:31:31.148Z,40.59
2016-06-09T09:32:31.291Z,40.76
2016-06-09T09:33:31.294Z,40.3
2016-06-09T09:34:31.329Z,40.49
2016-06-09T09:35:31.535Z,40.39
2016-06-09T09:36:31.335Z,40.59
2016-06-09T09:37:31.354Z,40.3
2016-06-09T09:38:31.358Z,40.78
2016-06-09T09:39:31.469Z,40.2
2016-06-09T09:40:31.488Z,40.2
2016-06-09T09:41:31.444Z,40.49
2016-06-09T09:42:31.464Z,40.49
2016-06-09T09:43:31.481Z,40.76
2016-06-09T09:44:31.517Z,40.78
2016-06-09T09:45:31.535Z,40.69
2016-06-09T09:46:31.569Z,40.49
2016-06-09T09:47:31.588Z,40.3
2016-06-09T09:48:31.621Z,40.11
2016-06-09T09:49:31.657Z,40.2
2016-06-09T09:50:32.503Z,40.11
2016-06-09T09:51:31.710Z,40.11
2016-06-09T09:52:31.729Z,40.2
2016-06-09T09:53:31.762Z,40.3
2016-06-09T09:54:31.781Z,40.2
2016-06-09T09:55:31.816Z,40.2
2016-06-09T09:56:31.850Z,40.2
2016-06-09T09:57:31.884Z,40.3
2016-06-09T09:58:31.888Z,40.2
2016-06-09T09:59:31.937Z,40.01
2016-06-09T10:00:31.956Z,40.01
2016-06-09T10:01:31.975Z,39.91
2016-06-09T10:02:32.009Z,40.11
2016-06-09T10:03:32.028Z,39.91
2016-06-09T10:04:32.109Z,39.62
2016-06-09T10:05:32.112Z,39.74
2016-06-09T10:06:32.771Z,39.94
2016-06-09T10:07:32.258Z,39.54
2016-06-09T10:08:32.261Z,40.12
2016-06-09T10:09:32.312Z,39.54
2016-06-09T10:10:32.330Z,39.94
2016-06-09T10:11:32.318Z,39.64
2016-06-09T10:12:32.165Z,39.54
2016-06-09T10:13:32.324Z,39.45
2016-06-09T10:14:32.343Z,39.45
2016-06-09T10:15:32.455Z,39.45
2016-06-09T10:16:32.490Z,39.54
2016-06-09T10:17:32.430Z,39.45
2016-06-09T10:18:32.449Z,39.36
2016-06-09T10:19:32.483Z,39.45
2016-06-09T10:20:33.236Z,39.36
2016-06-09T10:21:32.599Z,39.26
2016-06-09T10:22:32.570Z,39.36
2016-06-09T10:23:32.621Z,39.36
2016-06-09T10:24:32.608Z,39.36
2016-06-09T10:25:32.642Z,39.26
2016-06-09T10:26:32.676Z,39.57
2016-06-09T10:27:32.711Z,39.47
2016-06-09T10:28:32.839Z,39.28
2016-06-09T10:29:32.826Z,39.28
2016-06-09T10:30:32.845Z,39.28
2016-06-09T10:31:33.115Z,39.28
2016-06-09T10:32:32.992Z,39.28
2016-06-09T10:33:32.995Z,39.37
2016-06-09T10:34:33.013Z,38.99
2016-06-09T10:35:33.782Z,38.99
2016-06-09T10:36:33.505Z,39.18
2016-06-09T10:37:33.163Z,38.99
2016-06-09T10:38:33.166Z,39.28
2016-06-09T10:39:33.185Z,39.18
2016-06-09T10:40:33.189Z,39.28
2016-06-09T10:41:33.192Z,38.89
2016-06-09T10:42:33.210Z,39.09
2016-06-09T10:43:33.198Z,39.18
2016-06-09T10:44:33.201Z,39.18
2016-06-09T10:45:33.219Z,39.09
2016-06-09T10:46:33.223Z,38.99
2016-06-09T10:47:33.272Z,39.09
2016-06-09T10:48:33.306Z,39.18
2016-06-09T10:49:33.326Z,39.18
2016-06-09T10:50:33.531Z,38.99
2016-06-09T10:51:34.066Z,38.89
2016-06-09T10:52:33.397Z,39.18
2016-06-09T10:53:33.432Z,38.89
2016-06-09T10:54:33.450Z,39.18
2016-06-09T10:55:33.327Z,38.99
2016-06-09T10:56:33.519Z,39.09
2016-06-09T10:57:33.537Z,38.99
2016-06-09T10:58:33.572Z,39.18
2016-06-09T10:59:33.606Z,38.99
2016-06-09T11:00:33.626Z,38.99
2016-06-09T11:01:33.659Z,38.7
2016-06-09T11:02:33.678Z,38.6
2016-06-09T11:03:33.555Z,38.71
2016-06-09T11:04:33.731Z,38.43
2016-06-09T11:05:33.766Z,38.6
2016-06-09T11:06:33.643Z,38.62
2016-06-09T11:07:33.818Z,38.62
2016-06-09T11:08:33.868Z,38.91
2016-06-09T11:09:33.887Z,38.71
2016-06-09T11:10:33.906Z,38.81
2016-06-09T11:11:33.940Z,38.81
2016-06-09T11:12:33.974Z,38.53
2016-06-09T11:13:34.024Z,38.53
2016-06-09T11:14:34.027Z,38.53
2016-06-09T11:15:34.061Z,38.64
2016-06-09T11:16:33.924Z,38.45
2016-06-09T11:17:34.114Z,38.45
2016-06-09T11:18:34.133Z,38.16
2016-06-09T11:19:34.168Z,37.96
2016-06-09T11:20:34.201Z,37.58
2016-06-09T11:21:34.065Z,37.67
2016-06-09T11:22:34.239Z,37.87
2016-06-09T11:23:34.274Z,37.87
2016-06-09T11:24:34.308Z,37.96
2016-06-09T11:25:34.327Z,37.77
2016-06-09T11:26:34.361Z,38.06
2016-06-09T11:27:34.395Z,37.96
2016-06-09T11:28:34.430Z,38.16
2016-06-09T11:29:34.448Z,37.96
2016-06-09T11:30:34.546Z,37.87
2016-06-09T11:31:34.516Z,37.48
2016-06-09T11:32:34.535Z,37.77
2016-06-09T11:33:34.461Z,37.6
2016-06-09T11:34:34.683Z,37.5
2016-06-09T11:35:34.622Z,37.21
2016-06-09T11:36:34.845Z,37.21
2016-06-09T11:37:34.676Z,36.72
2016-06-09T11:38:34.710Z,36.94
2016-06-09T11:39:34.760Z,36.94
2016-06-09T11:40:34.810Z,36.65
2016-06-09T11:41:34.798Z,36.36
2016-06-09T11:42:34.816Z,36.18
2016-06-09T11:43:34.867Z,35.8
2016-06-09T11:44:34.729Z,35.7
2016-06-09T11:45:34.920Z,35.31
2016-06-09T11:46:34.938Z,35.72
2016-06-09T11:47:34.973Z,35.62
2016-06-09T11:48:35.101Z,35.42
2016-06-09T11:49:35.118Z,35.33
2016-06-09T11:50:35.138Z,35.04
2016-06-09T11:51:35.328Z,34.94
2016-06-09T11:52:35.160Z,35.42
2016-06-09T11:53:35.225Z,35.13
2016-06-09T11:54:35.229Z,35.15
2016-06-09T11:55:35.247Z,35.04
2016-06-09T11:56:35.251Z,34.86
2016-06-09T11:57:35.268Z,34.96
2016-06-09T11:58:35.366Z,34.38
2016-06-09T11:59:35.416Z,34.28
2016-06-09T12:00:35.418Z,34.67
2016-06-09T12:01:35.422Z,33.99
2016-06-09T12:02:35.425Z,34.2
2016-06-09T12:03:35.444Z,33.91
2016-06-09T12:04:35.478Z,33.81
2016-06-09T12:05:35.496Z,34.01
2016-06-09T12:06:35.765Z,33.81
2016-06-09T12:07:35.565Z,34.01
2016-06-09T12:08:35.584Z,33.83
2016-06-09T12:09:35.618Z,33.64
2016-06-09T12:10:35.652Z,33.64
2016-06-09T12:11:35.515Z,33.64
2016-06-09T12:12:35.705Z,33.15
2016-06-09T12:13:35.755Z,33.25
2016-06-09T12:14:35.773Z,32.78
2016-06-09T12:15:35.793Z,32.49
2016-06-09T12:16:35.827Z,32.39
2016-06-09T12:17:35.862Z,32.1
2016-06-09T12:18:35.880Z,32.39
2016-06-09T12:19:35.914Z,32.31
2016-06-09T12:20:36.058Z,32.31
2016-06-09T12:21:36.077Z,32.02
2016-06-09T12:22:36.111Z,32.12
2016-06-09T12:23:36.098Z,31.82
2016-06-09T12:24:36.071Z,31.94
2016-06-09T12:25:36.120Z,31.84
2016-06-09T12:26:36.140Z,31.35
2016-06-09T12:27:36.268Z,31.16
2016-06-09T12:28:36.270Z,31.26
2016-06-09T12:29:36.320Z,30.98
2016-06-09T12:30:36.339Z,30.98
2016-06-09T12:31:36.373Z,30.4
2016-06-09T12:32:36.376Z,30.59
2016-06-09T12:33:36.379Z,30.5
2016-06-09T12:34:36.382Z,30.59
2016-06-09T12:35:36.401Z,30.3
2016-06-09T12:36:36.436Z,30.79
2016-06-09T12:37:36.470Z,30.5
2016-06-09T12:38:36.505Z,30.51
2016-06-09T12:39:36.522Z,30.51
2016-06-09T12:40:36.557Z,30.41
2016-06-09T12:41:36.592Z,29.83
2016-06-09T12:42:36.626Z,29.93
2016-06-09T12:43:36.660Z,29.93
2016-06-09T12:44:36.773Z,29.83
2016-06-09T12:45:36.932Z,29.74
2016-06-09T12:46:36.951Z,30.02
2016-06-09T12:47:36.954Z,29.93
2016-06-09T12:48:36.972Z,30.02
2016-06-09T12:49:36.975Z,29.74
2016-06-09T12:50:36.995Z,29.83
2016-06-09T12:51:36.982Z,29.83
2016-06-09T12:52:37.000Z,29.83
2016-06-09T12:53:36.987Z,29.83
2016-06-09T12:54:37.162Z,29.74